createdAt,value
2019-05-20T00:00:01.110Z,70.69
2019-05-20T00:02:28.637Z,70.41
2019-05-20T00:04:57.232Z,70.68
2019-05-20T00:07:23.978Z,70.91
2019-05-20T00:09:51.063Z,71.10
2019-05-20T00:12:17.834Z,71.46
2019-05-20T00:14:44.620Z,71.25
2019-05-20T00:17:11.340Z,71.08
2019-05-20T00:19:38.108Z,70.61
2019-05-20T00:22:04.802Z,69.99
2019-05-20T00:24:31.805Z,70.57
2019-05-20T00:26:58.604Z,70.45
2019-05-20T00:29:25.668Z,70.64
2019-05-20T00:31:53.436Z,70.65
2019-05-20T00:34:34.692Z,70.31
2019-05-20T00:36:52.148Z,70.58
2019-05-20T00:39:20.597Z,70.87
2019-05-20T00:41:47.554Z,70.81
2019-05-20T00:44:14.318Z,70.56
2019-05-20T00:46:41.144Z,70.25
2019-05-20T00:49:10.568Z,69.81
2019-05-20T00:51:37.394Z,69.84
2019-05-20T00:54:06.051Z,69.93
2019-05-20T00:56:32.814Z,70.18
2019-05-20T00:58:59.692Z,70.31
2019-05-20T01:01:26.449Z,69.98
2019-05-20T01:03:53.230Z,70.10
2019-05-20T01:06:19.981Z,70.21
2019-05-20T01:08:46.731Z,70.20
2019-05-20T01:11:13.560Z,70.27
2019-05-20T01:13:40.329Z,70.62
2019-05-20T01:16:07.080Z,70.94
2019-05-20T01:18:33.919Z,71.22
2019-05-20T01:21:00.759Z,71.45
2019-05-20T01:23:27.605Z,71.76
2019-05-20T01:25:54.544Z,71.92
2019-05-20T01:28:21.676Z,72.10
2019-05-20T01:30:48.478Z,72.10
2019-05-20T01:33:18.135Z,72.27
2019-05-20T01:35:44.896Z,72.50
2019-05-20T01:38:12.122Z,72.30
2019-05-20T01:40:38.884Z,72.18
2019-05-20T01:43:05.626Z,72.95
2019-05-20T01:45:32.458Z,74.05
2019-05-20T01:48:00.109Z,73.99
2019-05-20T01:50:26.984Z,73.82
2019-05-20T01:52:53.829Z,73.87
2019-05-20T01:55:20.586Z,73.62
2019-05-20T01:57:47.451Z,73.27
2019-05-20T02:00:14.204Z,72.71
2019-05-20T02:02:41.034Z,72.71
2019-05-20T02:05:08.387Z,72.64
2019-05-20T02:07:35.140Z,72.83
2019-05-20T02:10:01.944Z,72.99
2019-05-20T02:12:28.684Z,73.28
2019-05-20T02:15:01.543Z,73.16
2019-05-20T02:17:29.065Z,73.02
2019-05-20T02:19:55.796Z,73.02
2019-05-20T02:22:23.087Z,72.85
2019-05-20T02:24:50.448Z,73.10
2019-05-20T02:27:17.483Z,73.26
2019-05-20T02:29:44.433Z,73.28
2019-05-20T02:32:11.273Z,73.28
2019-05-20T02:34:38.408Z,73.52
2019-05-20T02:37:05.228Z,75.40
2019-05-20T02:39:31.942Z,75.45
2019-05-20T02:41:58.757Z,75.09
2019-05-20T02:44:25.494Z,76.08
2019-05-20T02:46:52.416Z,76.83
2019-05-20T02:49:19.275Z,77.40
2019-05-20T02:51:46.013Z,78.49
2019-05-20T02:54:12.765Z,78.29
2019-05-20T02:56:39.631Z,78.22
2019-05-20T02:59:06.395Z,78.99
2019-05-20T03:01:33.084Z,79.20
2019-05-20T03:04:10.955Z,79.55
2019-05-20T03:06:28.844Z,79.82
2019-05-20T03:08:55.564Z,79.91
2019-05-20T03:11:22.328Z,80.11
2019-05-20T03:13:50.311Z,80.48
2019-05-20T03:16:17.011Z,80.64
2019-05-20T03:18:44.171Z,80.48
2019-05-20T03:21:10.911Z,80.64
2019-05-20T03:23:37.653Z,80.13
2019-05-20T03:26:04.549Z,80.00
2019-05-20T03:28:31.645Z,79.14
2019-05-20T03:30:58.517Z,77.97
2019-05-20T03:33:25.382Z,78.70
2019-05-20T03:35:52.274Z,79.50
2019-05-20T03:38:18.994Z,80.21
2019-05-20T03:40:45.747Z,80.64
2019-05-20T03:43:12.915Z,80.73
2019-05-20T03:45:39.685Z,80.63
2019-05-20T03:48:06.833Z,79.45
2019-05-20T03:50:33.529Z,78.37
2019-05-20T03:53:00.310Z,78.06
2019-05-20T03:55:27.062Z,78.05
2019-05-20T03:57:53.785Z,77.54
2019-05-20T04:00:37.818Z,77.35
2019-05-20T04:03:04.540Z,77.24
2019-05-20T04:05:31.265Z,76.89
2019-05-20T04:07:58.067Z,76.89
2019-05-20T04:10:24.803Z,77.31
2019-05-20T04:12:51.519Z,77.36
2019-05-20T04:15:18.293Z,77.55
2019-05-20T04:17:45.388Z,77.62
2019-05-20T04:20:12.220Z,78.21
2019-05-20T04:22:39.334Z,77.95
2019-05-20T04:25:06.173Z,77.70
2019-05-20T04:27:32.937Z,77.79
2019-05-20T04:29:59.717Z,77.95
2019-05-20T04:32:26.506Z,78.33
2019-05-20T04:34:53.234Z,78.33
2019-05-20T04:37:19.966Z,78.41
2019-05-20T04:39:46.669Z,78.09
2019-05-20T04:42:13.718Z,77.36
2019-05-20T04:44:40.460Z,77.34
2019-05-20T04:47:07.561Z,77.73
2019-05-20T04:49:34.493Z,77.74
2019-05-20T04:52:01.586Z,77.76
2019-05-20T04:54:28.312Z,77.67
2019-05-20T04:56:55.529Z,77.56
2019-05-20T04:59:22.310Z,77.19
2019-05-20T05:01:49.118Z,77.39
2019-05-20T05:04:16.425Z,77.20
2019-05-20T05:06:43.175Z,77.15
2019-05-20T05:09:15.613Z,77.26
2019-05-20T05:11:41.155Z,76.87
2019-05-20T05:14:08.208Z,76.31
2019-05-20T05:16:36.462Z,75.87
2019-05-20T05:19:03.516Z,75.33
2019-05-20T05:21:30.578Z,75.56
2019-05-20T05:23:59.550Z,76.17
2019-05-20T05:26:26.932Z,75.85
2019-05-20T05:28:56.729Z,75.37
2019-05-20T05:31:26.246Z,75.03
2019-05-20T05:33:55.323Z,75.26
2019-05-20T05:36:22.081Z,75.79
2019-05-20T05:38:50.163Z,75.48
2019-05-20T05:41:17.295Z,75.08
2019-05-20T05:43:52.913Z,74.60
2019-05-20T05:46:19.816Z,74.58
2019-05-20T05:48:46.638Z,74.13
2019-05-20T05:51:13.412Z,74.29
2019-05-20T05:53:40.857Z,74.14
2019-05-20T05:56:07.979Z,73.47
2019-05-20T05:58:35.538Z,73.78
2019-05-20T06:01:02.384Z,73.77
2019-05-20T06:03:29.271Z,73.46
2019-05-20T06:06:10.685Z,74.27
2019-05-20T06:08:25.061Z,73.65
2019-05-20T06:10:51.840Z,72.96
2019-05-20T06:13:18.608Z,73.41
2019-05-20T06:15:45.468Z,73.37
2019-05-20T06:18:12.295Z,73.68
2019-05-20T06:20:40.904Z,73.26
2019-05-20T06:23:08.083Z,74.00
2019-05-20T06:25:34.801Z,73.67
2019-05-20T06:28:01.632Z,72.93
2019-05-20T06:30:40.300Z,73.09
2019-05-20T06:33:07.387Z,73.15
2019-05-20T06:35:36.858Z,73.08
2019-05-20T06:38:08.618Z,73.12
2019-05-20T06:40:36.524Z,73.38
2019-05-20T06:43:03.241Z,73.57
2019-05-20T06:45:31.136Z,73.70
2019-05-20T06:48:16.153Z,73.56
2019-05-20T06:50:43.816Z,73.34
2019-05-20T06:53:10.619Z,73.75
2019-05-20T06:55:40.543Z,73.67
2019-05-20T06:58:07.566Z,74.29
2019-05-20T07:00:40.323Z,74.94
2019-05-20T07:03:07.096Z,74.72
2019-05-20T07:05:33.903Z,73.83
2019-05-20T07:08:02.921Z,72.96
2019-05-20T07:10:30.205Z,72.30
2019-05-20T07:12:56.975Z,72.72
2019-05-20T07:15:23.973Z,73.37
2019-05-20T07:17:50.750Z,72.81
2019-05-20T07:20:17.878Z,72.11
2019-05-20T07:22:55.835Z,71.71
2019-05-20T07:25:15.481Z,71.52
2019-05-20T07:27:43.889Z,71.19
2019-05-20T07:30:15.048Z,70.52
2019-05-20T07:32:39.623Z,70.42
2019-05-20T07:35:06.461Z,70.90
2019-05-20T07:37:33.384Z,70.65
2019-05-20T07:40:01.877Z,70.70
2019-05-20T07:42:28.729Z,70.69
2019-05-20T07:44:55.512Z,70.82
2019-05-20T07:47:22.340Z,70.01
2019-05-20T07:49:49.279Z,69.57
2019-05-20T07:52:16.102Z,68.70
2019-05-20T07:54:43.090Z,68.47
2019-05-20T07:57:09.942Z,68.73
2019-05-20T07:59:39.402Z,68.55
2019-05-20T08:02:06.284Z,68.11
2019-05-20T08:04:33.445Z,67.92
2019-05-20T08:07:00.222Z,66.93
2019-05-20T08:09:27.080Z,66.30
2019-05-20T08:11:53.798Z,66.12
2019-05-20T08:14:21.169Z,65.87
2019-05-20T08:16:47.945Z,66.19
2019-05-20T08:19:14.677Z,66.37
2019-05-20T08:21:43.667Z,65.99
2019-05-20T08:24:10.415Z,66.76
2019-05-20T08:26:37.355Z,67.06
2019-05-20T08:29:05.594Z,66.28
2019-05-20T08:31:32.334Z,65.85
2019-05-20T08:33:59.156Z,66.18
2019-05-20T08:36:26.038Z,66.11
2019-05-20T08:38:52.788Z,66.07
2019-05-20T08:41:19.545Z,66.49
2019-05-20T08:43:46.755Z,66.56
2019-05-20T08:46:13.719Z,65.93
2019-05-20T08:48:40.490Z,66.32
2019-05-20T08:51:07.456Z,66.04
2019-05-20T08:53:34.153Z,66.12
2019-05-20T08:56:00.931Z,65.46
2019-05-20T08:58:27.962Z,64.91
2019-05-20T09:00:57.497Z,64.47
2019-05-20T09:03:24.374Z,64.97
2019-05-20T09:05:51.180Z,65.03
2019-05-20T09:08:18.147Z,65.20
2019-05-20T09:10:44.904Z,64.45
2019-05-20T09:13:11.639Z,64.62
2019-05-20T09:15:38.394Z,65.44
2019-05-20T09:18:05.182Z,65.53
2019-05-20T09:20:32.114Z,65.83
2019-05-20T09:23:02.534Z,66.15
2019-05-20T09:25:31.630Z,65.87
2019-05-20T09:27:59.237Z,66.28
2019-05-20T09:30:26.179Z,65.77
2019-05-20T09:32:52.946Z,65.02
2019-05-20T09:35:19.811Z,64.25
2019-05-20T09:37:46.628Z,64.70
2019-05-20T09:40:21.832Z,64.90
2019-05-20T09:42:48.661Z,64.35
2019-05-20T09:45:15.445Z,64.42
2019-05-20T09:47:42.744Z,64.28
2019-05-20T09:50:09.618Z,64.03
2019-05-20T09:52:36.395Z,63.71
2019-05-20T09:55:04.914Z,63.56
2019-05-20T09:57:31.717Z,62.99
2019-05-20T09:59:58.990Z,62.88
2019-05-20T10:02:36.116Z,61.88
2019-05-20T10:04:54.421Z,61.43
2019-05-20T10:07:21.858Z,61.48
2019-05-20T10:09:48.913Z,62.35
2019-05-20T10:12:15.976Z,62.19
2019-05-20T10:14:42.825Z,61.22
2019-05-20T10:17:09.906Z,60.95
2019-05-20T10:19:36.745Z,60.95
2019-05-20T10:22:03.545Z,60.67
2019-05-20T10:24:30.259Z,60.66
2019-05-20T10:26:57.170Z,60.27
2019-05-20T10:29:26.962Z,61.46
2019-05-20T10:31:54.390Z,61.50
2019-05-20T10:34:21.478Z,61.76
2019-05-20T10:36:48.182Z,61.69
2019-05-20T10:39:14.908Z,61.79
2019-05-20T10:41:41.826Z,61.25
2019-05-20T10:44:08.627Z,60.78
2019-05-20T10:46:35.770Z,60.48
2019-05-20T10:49:02.946Z,60.78
2019-05-20T10:51:29.898Z,60.39
2019-05-20T10:53:59.483Z,59.90
2019-05-20T10:56:26.210Z,59.05
2019-05-20T10:58:53.052Z,59.06
2019-05-20T11:01:19.794Z,59.38
2019-05-20T11:03:47.105Z,58.71
2019-05-20T11:06:13.894Z,58.83
2019-05-20T11:08:40.709Z,58.91
2019-05-20T11:11:13.849Z,58.51
2019-05-20T11:13:40.550Z,58.24
2019-05-20T11:16:21.427Z,58.28
2019-05-20T11:18:42.283Z,58.65
2019-05-20T11:21:09.011Z,58.80
2019-05-20T11:23:35.876Z,58.06
2019-05-20T11:26:02.614Z,57.45
2019-05-20T11:28:29.712Z,56.19
2019-05-20T11:30:56.420Z,56.78
2019-05-20T11:33:26.990Z,56.62
2019-05-20T11:35:57.459Z,56.74
2019-05-20T11:38:24.268Z,57.23
2019-05-20T11:40:51.220Z,57.26
2019-05-20T11:43:17.986Z,57.04
2019-05-20T11:45:44.703Z,57.80
2019-05-20T11:48:11.606Z,58.26
2019-05-20T11:50:38.462Z,57.91
2019-05-20T11:53:05.205Z,57.65
2019-05-20T11:55:32.018Z,58.00
2019-05-20T11:58:15.871Z,58.57
2019-05-20T12:00:35.768Z,58.32
2019-05-20T12:03:02.881Z,56.39
2019-05-20T12:05:31.687Z,56.18
2019-05-20T12:07:58.523Z,55.36
2019-05-20T12:10:25.571Z,56.07
2019-05-20T12:12:52.415Z,55.54
2019-05-20T12:15:19.108Z,54.34
2019-05-20T12:17:45.961Z,54.49
2019-05-20T12:20:15.853Z,54.88
2019-05-20T12:22:42.684Z,54.51
2019-05-20T12:25:09.429Z,54.42
2019-05-20T12:27:43.368Z,54.05
2019-05-20T12:30:10.987Z,54.06
2019-05-20T12:32:37.705Z,54.18
2019-05-20T12:35:05.524Z,52.73
2019-05-20T12:37:32.244Z,53.61
2019-05-20T12:40:07.053Z,53.39
2019-05-20T12:42:31.321Z,52.97
2019-05-20T12:44:58.048Z,53.38
2019-05-20T12:47:24.806Z,53.98
2019-05-20T12:49:52.068Z,54.10
2019-05-20T12:52:19.295Z,54.68
2019-05-20T12:54:46.026Z,54.07
2019-05-20T12:57:12.745Z,52.00
2019-05-20T12:59:39.476Z,53.35
2019-05-20T13:02:06.648Z,53.58
2019-05-20T13:04:37.222Z,53.43
2019-05-20T13:07:04.234Z,52.77
2019-05-20T13:09:31.011Z,52.28
2019-05-20T13:11:58.706Z,52.71
2019-05-20T13:14:25.445Z,51.89
2019-05-20T13:16:52.369Z,53.32
2019-05-20T13:19:19.152Z,53.83
2019-05-20T13:21:45.896Z,54.09
2019-05-20T13:24:12.624Z,54.95
2019-05-20T13:26:39.868Z,55.92
2019-05-20T13:29:06.624Z,55.88
2019-05-20T13:31:40.046Z,55.66
2019-05-20T13:34:06.834Z,56.59
2019-05-20T13:36:33.592Z,56.98
2019-05-20T13:39:00.553Z,57.78
2019-05-20T13:41:27.857Z,58.05
2019-05-20T13:43:54.582Z,58.29
2019-05-20T13:46:21.473Z,58.37
2019-05-20T13:48:48.571Z,58.17
2019-05-20T13:51:16.358Z,58.41
2019-05-20T13:53:44.700Z,58.08
2019-05-20T13:56:11.551Z,57.41
2019-05-20T13:58:39.952Z,57.38
2019-05-20T14:01:08.510Z,56.14
2019-05-20T14:03:35.276Z,54.20
2019-05-20T14:06:02.065Z,51.80
2019-05-20T14:08:29.300Z,52.31
2019-05-20T14:11:04.210Z,52.37
2019-05-20T14:13:25.350Z,52.49
2019-05-20T14:15:52.184Z,52.11
2019-05-20T14:18:18.971Z,51.82
2019-05-20T14:20:45.677Z,51.42
2019-05-20T14:23:12.556Z,52.00
2019-05-20T14:25:39.348Z,51.79
2019-05-20T14:28:06.096Z,52.58
2019-05-20T14:30:34.254Z,53.63
2019-05-20T14:33:01.142Z,55.32
2019-05-20T14:35:27.985Z,53.98
2019-05-20T14:37:54.744Z,54.70
2019-05-20T14:40:21.566Z,55.02
2019-05-20T14:42:48.346Z,54.31
2019-05-20T14:45:15.425Z,54.78
2019-05-20T14:47:42.179Z,57.06
2019-05-20T14:50:09.036Z,58.49
2019-05-20T14:52:36.047Z,58.92
2019-05-20T14:55:03.293Z,59.32
2019-05-20T14:57:30.259Z,59.59
2019-05-20T14:59:56.986Z,60.18
2019-05-20T15:02:30.767Z,60.70
2019-05-20T15:04:55.703Z,60.68
2019-05-20T15:07:29.794Z,58.62
2019-05-20T15:09:52.899Z,58.45
2019-05-20T15:12:19.895Z,58.91
2019-05-20T15:14:46.653Z,58.91
2019-05-20T15:17:13.383Z,59.05
2019-05-20T15:19:40.349Z,60.81
2019-05-20T15:22:08.002Z,61.64
2019-05-20T15:24:34.797Z,61.04
2019-05-20T15:27:02.309Z,60.14
2019-05-20T15:29:29.343Z,60.81
2019-05-20T15:32:00.590Z,62.31
2019-05-20T15:34:29.223Z,62.49
2019-05-20T15:36:56.012Z,61.93
2019-05-20T15:39:22.760Z,62.34
2019-05-20T15:41:49.446Z,61.77
2019-05-20T15:44:16.866Z,61.45
2019-05-20T15:46:44.088Z,62.95
2019-05-20T15:49:10.909Z,62.61
2019-05-20T15:51:37.681Z,62.61
2019-05-20T15:54:04.556Z,63.76
2019-05-20T15:56:31.277Z,64.13
2019-05-20T15:58:58.016Z,64.57
2019-05-20T16:01:27.471Z,64.96
2019-05-20T16:03:54.348Z,65.06
2019-05-20T16:06:21.509Z,64.17
2019-05-20T16:08:48.752Z,66.70
2019-05-20T16:11:15.613Z,70.41
2019-05-20T16:13:42.375Z,71.95
2019-05-20T16:16:12.813Z,72.05
2019-05-20T16:18:38.053Z,71.74
2019-05-20T16:21:04.788Z,70.81
2019-05-20T16:23:32.105Z,69.84
2019-05-20T16:25:59.120Z,70.81
2019-05-20T16:28:25.984Z,70.61
2019-05-20T16:30:56.509Z,71.29
2019-05-20T16:33:25.582Z,71.60
2019-05-20T16:35:52.314Z,71.81
2019-05-20T16:38:19.075Z,73.61
2019-05-20T16:40:45.805Z,73.35
2019-05-20T16:43:12.530Z,72.70
2019-05-20T16:45:39.641Z,73.45
2019-05-20T16:48:06.687Z,73.84
2019-05-20T16:50:33.474Z,73.94
2019-05-20T16:53:00.176Z,74.29
2019-05-20T16:55:26.896Z,74.58
2019-05-20T16:57:53.701Z,74.30
2019-05-20T17:00:31.541Z,74.12
2019-05-20T17:02:49.052Z,74.10
2019-05-20T17:05:15.849Z,73.72
2019-05-20T17:07:42.625Z,73.73
2019-05-20T17:10:09.478Z,75.05
2019-05-20T17:12:36.220Z,76.89
2019-05-20T17:15:03.038Z,78.26
2019-05-20T17:17:31.987Z,78.10
2019-05-20T17:19:58.729Z,76.48
2019-05-20T17:22:25.454Z,77.56
2019-05-20T17:24:52.212Z,77.08
2019-05-20T17:27:18.959Z,75.71
2019-05-20T17:29:45.676Z,74.93
2019-05-20T17:32:12.470Z,74.42
2019-05-20T17:34:39.837Z,75.20
2019-05-20T17:37:06.593Z,76.70
2019-05-20T17:39:33.414Z,76.49
2019-05-20T17:42:00.631Z,76.72
2019-05-20T17:44:27.619Z,76.86
2019-05-20T17:46:54.362Z,77.43
2019-05-20T17:49:21.451Z,76.86
2019-05-20T17:51:49.385Z,75.55
2019-05-20T17:54:16.435Z,74.44
2019-05-20T17:56:43.272Z,74.98
2019-05-20T17:59:10.058Z,74.59
2019-05-20T18:01:36.867Z,74.76
2019-05-20T18:04:03.945Z,74.94
2019-05-20T18:06:30.634Z,75.30
2019-05-20T18:08:59.670Z,74.20
2019-05-20T18:11:26.359Z,73.59
2019-05-20T18:13:56.336Z,74.47
2019-05-20T18:16:23.597Z,73.17
2019-05-20T18:18:50.352Z,73.64
2019-05-20T18:21:17.232Z,73.72
2019-05-20T18:23:44.016Z,73.82
2019-05-20T18:26:11.117Z,73.35
2019-05-20T18:28:37.929Z,73.65
2019-05-20T18:31:04.889Z,73.53
2019-05-20T18:33:31.988Z,73.27
2019-05-20T18:35:58.756Z,73.48
2019-05-20T18:38:25.894Z,74.13
2019-05-20T18:40:53.783Z,75.28
2019-05-20T18:43:20.820Z,74.45
2019-05-20T18:45:47.545Z,75.57
2019-05-20T18:48:14.388Z,75.58
2019-05-20T18:50:41.069Z,75.60
2019-05-20T18:53:07.817Z,76.37
2019-05-20T18:55:35.078Z,76.61
2019-05-20T18:58:01.912Z,75.58
2019-05-20T19:00:29.093Z,76.06
2019-05-20T19:02:55.832Z,75.72
2019-05-20T19:05:22.670Z,75.74
2019-05-20T19:07:52.369Z,75.60
2019-05-20T19:10:19.537Z,75.13
2019-05-20T19:12:48.359Z,75.32
2019-05-20T19:15:15.198Z,74.77
2019-05-20T19:17:42.010Z,74.40
2019-05-20T19:20:12.360Z,74.49
2019-05-20T19:22:39.070Z,74.37
2019-05-20T19:25:06.901Z,74.43
2019-05-20T19:27:34.022Z,74.35
2019-05-20T19:30:00.788Z,73.83
2019-05-20T19:32:27.863Z,73.68
2019-05-20T19:34:54.592Z,72.75
2019-05-20T19:37:21.724Z,72.81
2019-05-20T19:39:48.456Z,73.13
2019-05-20T19:42:15.242Z,72.85
2019-05-20T19:44:41.960Z,73.36
2019-05-20T19:47:08.856Z,73.12
2019-05-20T19:49:37.010Z,72.90
2019-05-20T19:52:03.765Z,73.19
2019-05-20T19:54:30.523Z,72.93
2019-05-20T19:56:58.553Z,73.15
2019-05-20T19:59:25.719Z,72.85
2019-05-20T20:01:52.573Z,72.42
2019-05-20T20:04:19.755Z,72.85
2019-05-20T20:06:46.506Z,72.73
2019-05-20T20:09:13.562Z,72.61
2019-05-20T20:11:42.244Z,72.16
2019-05-20T20:14:08.970Z,72.30
2019-05-20T20:16:36.063Z,71.89
2019-05-20T20:19:02.802Z,72.24
2019-05-20T20:21:29.536Z,72.27
2019-05-20T20:23:56.240Z,72.44
2019-05-20T20:26:25.848Z,72.43
2019-05-20T20:28:52.677Z,71.73
2019-05-20T20:31:19.798Z,71.90
2019-05-20T20:33:46.626Z,71.85
2019-05-20T20:36:13.340Z,72.19
2019-05-20T20:38:40.081Z,71.97
2019-05-20T20:41:07.130Z,71.22
2019-05-20T20:43:33.862Z,70.78
2019-05-20T20:46:03.751Z,70.32
2019-05-20T20:48:30.481Z,69.67
2019-05-20T20:50:57.260Z,69.60
2019-05-20T20:53:24.117Z,69.22
2019-05-20T20:55:51.512Z,69.35
2019-05-20T20:58:18.230Z,69.49
2019-05-20T21:00:45.186Z,69.75
2019-05-20T21:03:11.946Z,69.90
2019-05-20T21:05:38.700Z,69.48
2019-05-20T21:08:05.794Z,69.45
2019-05-20T21:10:32.617Z,69.81
2019-05-20T21:13:04.402Z,70.54
2019-05-20T21:15:33.906Z,70.60
2019-05-20T21:18:01.168Z,70.62
2019-05-20T21:20:27.999Z,71.08
2019-05-20T21:22:54.755Z,71.15
2019-05-20T21:25:21.585Z,71.51
2019-05-20T21:27:48.847Z,71.89
2019-05-20T21:30:15.614Z,72.38
2019-05-20T21:32:42.374Z,72.57
2019-05-20T21:35:09.155Z,72.76
2019-05-20T21:37:41.909Z,72.32
2019-05-20T21:40:09.160Z,71.88
2019-05-20T21:42:35.944Z,71.78
2019-05-20T21:45:03.538Z,72.16
2019-05-20T21:47:30.654Z,71.85
2019-05-20T21:49:57.918Z,71.62
2019-05-20T21:52:25.104Z,71.63
2019-05-20T21:54:51.950Z,71.03
2019-05-20T21:57:18.687Z,70.92
2019-05-20T21:59:45.593Z,70.53
2019-05-20T22:02:12.551Z,70.71
2019-05-20T22:04:39.475Z,71.03
2019-05-20T22:07:06.442Z,71.23
2019-05-20T22:09:33.311Z,71.27
2019-05-20T22:12:00.161Z,71.03
2019-05-20T22:14:27.456Z,71.82
2019-05-20T22:16:54.325Z,71.80
2019-05-20T22:19:21.106Z,71.90
2019-05-20T22:21:54.543Z,71.39
2019-05-20T22:24:21.312Z,71.34
2019-05-20T22:26:49.564Z,71.29
2019-05-20T22:29:16.320Z,71.23
2019-05-20T22:32:19.668Z,71.08
2019-05-20T22:34:53.639Z,71.00
2019-05-20T22:37:15.133Z,71.05
2019-05-20T22:39:41.896Z,70.94
2019-05-20T22:42:08.643Z,71.43
2019-05-20T22:44:35.759Z,71.63
2019-05-20T22:47:04.941Z,71.47
2019-05-20T22:49:32.005Z,71.70
2019-05-20T22:51:58.728Z,71.55
2019-05-20T22:54:25.475Z,71.55
2019-05-20T22:56:52.638Z,71.50
2019-05-20T22:59:19.389Z,71.82
2019-05-20T23:01:46.100Z,71.92
2019-05-20T23:04:13.744Z,72.31
2019-05-20T23:06:40.486Z,72.04
2019-05-20T23:09:09.517Z,72.16
2019-05-20T23:11:36.645Z,71.88
2019-05-20T23:14:03.929Z,72.00
2019-05-20T23:16:30.894Z,72.14
2019-05-20T23:18:57.717Z,71.73
2019-05-20T23:21:24.399Z,72.00
2019-05-20T23:23:52.714Z,72.20
2019-05-20T23:26:19.566Z,72.33
2019-05-20T23:28:46.315Z,71.89
2019-05-20T23:31:13.066Z,72.33
2019-05-20T23:33:39.834Z,72.25
2019-05-20T23:36:06.604Z,72.27
2019-05-20T23:38:33.348Z,72.36
2019-05-20T23:41:00.052Z,72.18
2019-05-20T23:43:26.897Z,72.26
2019-05-20T23:45:53.608Z,72.67
2019-05-20T23:48:20.386Z,72.94
2019-05-20T23:50:47.491Z,73.68
2019-05-20T23:53:14.281Z,73.41
2019-05-20T23:55:43.750Z,73.04
2019-05-20T23:58:10.682Z,72.81
